Station: Hindmarsh Island

  Atmospheric Gas Attenuation - ITU Rec 676-11   --------------- db/100km ---------------
Date Time Temp RH % AH g/m3 Dew Point Wind Direction Speed kph Gust kph Barometer mB Rainfall Since 9am 24GHz 47GHz 76GHz 122GHz 134GHz 241GHz
17 01:10 7.6 89 7.17 5.9 11 11 1022.1 0 16.8 25.7 37.4 97.8 87.3 298.7
17 01:00 7.9 89 7.31 6.2 13 17 1022.1 0 17.1 25.8 37.8 98.9 88.9 304.2
17 00:50 7.7 89 7.22 6 15 17 1022 0 16.9 25.7 37.5 98.2 87.9 300.6
17 00:40 7.2 87 6.83 5.2 15 15 1022.2 0 16.1 25.2 36.1 94.5 83.1 283.9
17 00:30 7.5 87 6.97 5.5 7 9 1022.5 0 16.4 25.4 36.6 95.7 84.7 289.6
17 00:20 8 88 7.28 6.1 7 9 1022.6 0 17.0 25.8 37.7 98.5 88.4 302.5
17 00:10 8 88 7.28 6.1 7 9 1022.8 0 17.0 25.8 37.7 98.5 88.4 302.6
17 00:00 8.1 88 7.33 6.2 9 13 1022.8 0 17.1 25.8 37.8 99.0 89.0 304.6
16 23:50 8.1 88 7.33 6.2 11 13 1022.9 0 17.1 25.8 37.8 99.0 89.0 304.6
16 23:40 8 88 7.28 6.1 11 11 1022.9 0 17.0 25.8 37.7 98.6 88.4 302.6
16 23:30 8 87 7.2 6 13 13 1023 0 16.8 25.6 37.3 97.7 87.3 298.8
16 23:20 8.1 88 7.33 6.2 11 13 1022.9 0 17.1 25.8 37.8 99.0 89.0 304.6
16 23:10 8.1 87 7.24 6.1 11 11 1023 0 16.9 25.7 37.5 98.0 87.8 300.3
16 23:00 8.2 87 7.29 6.2 11 13 1023.2 0 17.0 25.7 37.6 98.4 88.3 302.4
16 22:50 8.2 87 7.29 6.2 11 11 1023.2 0 17.0 25.7 37.6 98.4 88.3 302.4
16 22:40 8.2 87 7.29 6.2 9 11 1023.1 0 17.0 25.7 37.6 98.4 88.3 302.3
16 22:30 8.6 88 7.56 6.7 11 13 1023.2 0 17.6 26.1 38.6 100.9 91.6 313.8
16 22:20 8.3 87 7.34 6.3 11 11 1023.2 0 17.1 25.8 37.8 98.9 88.9 304.4
16 22:10 8.4 86 7.3 6.2 11 13 1023.2 0 17.0 25.7 37.6 98.3 88.2 302.1
16 22:00 8.4 87 7.38 6.4 11 13 1023.2 0 17.2 25.8 37.9 99.2 89.3 305.9
16 21:50 8.5 86 7.35 6.3 11 13 1023.3 0 17.1 25.8 37.7 98.7 88.8 304.1
16 21:40 8.5 86 7.35 6.3 13 15 1023.2 0 17.1 25.8 37.7 98.7 88.8 304.1
16 21:30 8.7 85 7.35 6.3 9 9 1023.6 0 17.1 25.7 37.7 98.5 88.6 303.4
16 21:20 9.1 86 7.63 6.9 7 9 1023.6 0 17.7 26.1 38.6 101.1 92.0 315.2
16 21:10 9.1 86 7.63 6.9 7 9 1023.6 0 17.7 26.1 38.6 101.1 92.0 315.2
16 21:00 8.9 85 7.45 6.5 9 11 1023.7 0 17.3 25.8 38.0 99.4 89.8 307.4
16 20:50 9.2 85 7.59 6.8 9 9 1023.7 0 17.6 26.0 38.4 100.5 91.3 312.9
16 20:40 9.4 85 7.69 7 7 9 1023.6 0 17.8 26.1 38.7 101.4 92.4 316.9
16 20:30 9.3 84 7.55 6.7 7 9 1023.6 0 17.5 25.9 38.2 100.0 90.6 310.6
16 20:20 10 84 7.9 7.4 4 7 1023.5 0 18.3 26.2 39.3 102.9 94.6 324.4
16 20:10 10.3 83 7.95 7.5 0 0 1023.4 0 18.4 26.2 39.4 103.1 94.9 325.5
16 20:00 10.2 83 7.9 7.4 0 0 1023.4 0 18.3 26.2 39.2 102.6 94.3 323.6
16 19:50 10.5 83 8.05 7.7 0 0 1023.5 0 18.6 26.3 39.7 103.9 96.0 329.5
16 19:40 10.4 81 7.81 7.3 4 6 1023.6 0 18.0 26.0 38.7 101.4 92.9 318.5
16 19:30 11 81 8.11 7.9 6 7 1023.7 0 18.7 26.3 39.7 103.9 96.2 330.3
16 19:20 11.5 81 8.37 8.4 7 7 1023.6 0 19.2 26.6 40.5 106.1 99.1 340.5
16 19:10 11.5 81 8.37 8.4 7 7 1023.5 0 19.2 26.6 40.5 106.1 99.1 340.5
16 19:00 11.5 81 8.37 8.4 7 9 1023.4 0 19.2 26.6 40.5 106.1 99.1 340.5
16 18:50 11.6 81 8.42 8.5 6 7 1023.4 0 19.3 26.6 40.6 106.5 99.6 342.4
16 18:40 11.4 81 8.32 8.3 9 11 1023.3 0 19.1 26.5 40.3 105.7 98.5 338.5
16 18:30 11.4 81 8.32 8.3 9 11 1023.4 0 19.1 26.5 40.3 105.7 98.5 338.5
16 18:20 11.6 81 8.42 8.5 9 9 1023.3 0 19.3 26.6 40.6 106.5 99.6 342.4
16 18:10 11.5 81 8.37 8.4 9 9 1023.3 0 19.2 26.6 40.5 106.1 99.1 340.4
16 18:00 11.6 81 8.42 8.5 11 11 1023.2 0 19.3 26.6 40.6 106.5 99.6 342.3
16 17:50 11.7 80 8.37 8.4 11 11 1023.1 0 19.2 26.5 40.4 105.8 98.8 339.5
16 17:40 11.8 79 8.32 8.3 11 11 1023.1 0 19.1 26.4 40.1 105.1 98.0 336.7
16 17:30 12.1 78 8.37 8.4 7 9 1023.1 0 19.2 26.4 40.2 105.3 98.3 337.8
16 17:20 12.3 77 8.36 8.4 7 9 1023.1 0 19.1 26.3 40.0 104.9 97.9 336.4
16 17:10 12.4 77 8.41 8.5 7 9 1023.1 0 19.2 26.4 40.2 105.3 98.4 338.4
16 17:00 12.7 76 8.46 8.6 11 13 1023.1 0 19.3 26.4 40.2 105.4 98.7 339.4
16 16:50 12.9 75 8.45 8.6 11 11 1023 0 19.3 26.3 40.1 105.1 98.3 338.1
16 16:40 13.1 74 8.44 8.6 11 13 1023 0 19.3 26.2 39.9 104.7 98.0 336.7
16 16:30 13.2 73 8.38 8.5 13 15 1022.9 0 19.1 26.1 39.6 103.9 97.0 333.5
16 16:20 13.4 72 8.37 8.5 13 15 1022.9 0 19.1 26.0 39.5 103.5 96.6 332.2
16 16:10 13.5 72 8.42 8.6 13 13 1023 0 19.2 26.1 39.7 103.9 97.2 334.1
16 16:00 13.8 72 8.58 8.8 13 15 1023.1 0 19.5 26.2 40.2 105.3 98.9 340.3
16 15:50 13.8 71 8.46 8.6 15 15 1023.1 0 19.3 26.0 39.7 104.0 97.4 334.7
16 15:40 14 71 8.56 8.8 13 15 1023.1 0 19.5 26.1 40.0 104.8 98.4 338.5
16 15:30 14.1 70 8.5 8.7 13 17 1023.1 0 19.4 26.0 39.7 104.0 97.5 335.3
16 15:20 14 69 8.32 8.4 15 15 1023.1 0 19.0 25.8 39.0 102.2 95.3 327.4
16 15:10 14.3 70 8.6 8.9 15 17 1023.1 0 19.6 26.1 40.0 104.8 98.6 339.0
16 15:00 14.3 70 8.6 8.9 15 20 1023.1 0 19.6 26.1 40.0 104.8 98.6 339.0
16 14:50 14.3 69 8.48 8.7 15 17 1023 0 19.3 25.9 39.5 103.5 97.0 333.5
16 14:40 14.4 69 8.53 8.8 17 19 1023 0 19.4 26.0 39.7 103.9 97.5 335.4
16 14:30 14.7 70 8.81 9.3 17 19 1023.1 0 20.0 26.3 40.6 106.5 100.8 347.0
16 14:20 14.8 69 8.74 9.2 15 17 1023 0 19.8 26.2 40.3 105.6 99.8 343.3
16 14:10 14.4 68 8.41 8.6 15 17 1023 0 19.1 25.8 39.2 102.6 95.9 329.8
16 14:00 14.7 68 8.56 8.9 17 19 1023.1 0 19.4 25.9 39.6 103.9 97.5 335.5
16 13:50 14.9 68 8.67 9.1 17 19 1023.1 0 19.7 26.1 40.0 104.8 98.7 339.7
16 13:40 14.8 67 8.49 8.7 13 15 1023.3 0 19.3 25.8 39.3 103.0 96.5 331.9
16 13:30 14.9 66 8.41 8.6 15 19 1023.4 0 19.1 25.7 38.9 102.0 95.4 327.9
16 13:20 15.1 68 8.77 9.2 15 17 1023.4 0 19.9 26.2 40.3 105.6 99.8 343.5
16 13:10 14.8 67 8.49 8.7 13 15 1023.6 0 19.3 25.8 39.3 103.0 96.5 332.0
16 13:00 15 69 8.85 9.4 13 15 1023.7 0 20.1 26.3 40.7 106.6 101.0 347.7
16 12:50 14.4 69 8.53 8.8 13 15 1023.7 0 19.4 26.0 39.7 104.0 97.6 335.6
16 12:40 15.5 69 9.12 9.8 17 19 1023.8 0 20.6 26.6 41.5 108.8 103.9 358.0
16 12:30 14.4 69 8.53 8.8 13 17 1024 0 19.4 26.0 39.7 104.0 97.6 335.6
16 12:20 15.3 69 9.01 9.7 13 13 1024.2 0 20.4 26.5 41.2 108.0 102.8 353.9
16 12:10 15 68 8.72 9.1 15 17 1024.4 0 19.8 26.2 40.2 105.3 99.4 341.9
16 12:00 15.2 70 9.09 9.8 17 19 1024.4 0 20.6 26.7 41.6 109.0 104.0 358.1
16 11:50 14.9 70 8.92 9.5 19 20 1024.6 0 20.2 26.5 41.0 107.6 102.2 351.7
16 11:40 14.6 72 9.01 9.6 19 20 1024.6 0 20.4 26.8 41.6 109.0 103.8 357.2
16 11:30 15.1 72 9.29 10.1 17 20 1024.7 0 21.0 27.1 42.4 111.3 106.8 368.0
16 11:20 14.7 74 9.32 10.1 17 19 1024.8 0 21.1 27.2 42.8 112.2 107.8 371.4
16 11:10 14.7 74 9.32 10.1 15 17 1024.9 0 21.1 27.2 42.8 112.3 107.8 371.4
16 11:00 14.7 73 9.19 9.9 17 20 1024.9 0 20.8 27.0 42.2 110.8 106.1 365.3
16 10:50 14.2 77 9.4 10.2 17 19 1025.1 0 21.3 27.5 43.4 113.9 109.6 377.6
16 10:40 14.6 76 9.51 10.4 17 20 1025 0 21.5 27.6 43.6 114.5 110.5 380.9
16 10:30 14.7 77 9.69 10.7 17 20 1025 0 21.9 27.9 44.3 116.3 112.8 389.0
16 10:20 14.3 78 9.58 10.5 19 20 1025 0 21.6 27.8 44.1 115.7 111.9 385.7
16 10:10 14.3 78 9.58 10.5 19 20 1025 0 21.6 27.8 44.1 115.7 111.9 385.7
16 10:00 14.2 80 9.77 10.8 20 24 1024.8 0 22.1 28.1 44.9 118.0 114.7 395.3
16 09:50 13.9 80 9.59 10.5 22 24 1024.7 0 21.7 27.9 44.3 116.4 112.6 388.1
16 09:40 13.9 81 9.71 10.7 19 19 1024.6 0 21.9 28.1 44.8 117.7 114.3 393.9
16 09:30 13.8 82 9.77 10.8 13 17 1024.7 0 22.1 28.3 45.1 118.6 115.2 397.3
16 09:20 13.5 82 9.59 10.5 13 13 1024.7 0 21.7 28.1 44.6 117.0 113.2 390.1
16 09:10 13.9 83 9.95 11.1 13 15 1024.6 0 22.5 28.5 45.8 120.4 117.6 405.5
16 09:00 12.4 82 8.96 9.4 9 13 1024.6 0 20.4 27.3 42.5 111.5 106.1 365.0
16 08:50 12.1 82 8.79 9.1 9 11 1024.6 0 20.1 27.1 42.0 110.1 104.1 358.2
16 08:40 11.9 82 8.69 8.9 9 11 1024.5 0 19.9 27.0 41.7 109.2 103.0 354.3

Last Refresh: 17-Jul-2020 01:28:46

Most of the information presented on this site is sourced from the Bureau of Meteorology.  Copyright in all material sourced from the Bureau of Meteorology resides with the Commonwealth of Australia.